Time;durP1;ratioP1;P1;durP2;ratioP2;P2;SDS_P1;SDS_P2;PMS_P1;PMS_P2;Temp;Humidity;BMP_temperature;BMP_pressure;BME280_temperature;BME280_humidity;BME280_pressure;Samples;Min_cycle;Max_cycle;Signal;HPM_P1;HPM_P2
2022/03/09 00:01:51;;;;;;;39.13;12.43;;;0.70;87.70;;;;;;5023403;28;20033;-67
2022/03/09 00:04:17;;;;;;;41.05;13.25;;;0.60;88.10;;;;;;5013555;28;20025;-67
2022/03/09 00:06:43;;;;;;;42.42;14.52;;;0.60;88.30;;;;;;5019205;28;20674;-65
2022/03/09 00:09:10;;;;;;;31.98;10.48;;;0.60;88.90;;;;;;5023326;28;20069;-67
2022/03/09 00:11:36;;;;;;;33.58;11.65;;;0.60;89.50;;;;;;5022447;28;20037;-67
2022/03/09 00:14:02;;;;;;;38.97;12.20;;;0.60;89.60;;;;;;5022580;28;20040;-67
2022/03/09 00:16:28;;;;;;;33.88;12.48;;;0.60;89.20;;;;;;5024369;28;20397;-67
2022/03/09 00:18:54;;;;;;;38.80;12.50;;;0.60;89.30;;;;;;5024050;28;20026;-67
2022/03/09 00:21:20;;;;;;;32.13;12.20;;;0.60;89.70;;;;;;5024252;28;20029;-67
2022/03/09 00:23:47;;;;;;;23.50;10.57;;;0.60;90.20;;;;;;5024264;28;20061;-67
2022/03/09 00:26:14;;;;;;;24.92;11.52;;;0.70;90.70;;;;;;5024176;28;20409;-67
2022/03/09 00:28:39;;;;;;;27.23;12.35;;;0.70;91.00;;;;;;5023156;28;20037;-67
2022/03/09 00:31:06;;;;;;;29.90;13.27;;;0.80;91.20;;;;;;5024142;28;20033;-67
2022/03/09 00:33:33;;;;;;;28.48;11.38;;;0.90;91.40;;;;;;5024058;28;20044;-67
2022/03/09 00:35:59;;;;;;;32.47;13.13;;;0.90;91.50;;;;;;5023826;28;20078;-67
2022/03/09 00:38:25;;;;;;;28.50;12.25;;;0.90;91.40;;;;;;5023618;28;20068;-67
2022/03/09 00:40:50;;;;;;;53.10;18.27;;;0.90;91.00;;;;;;5024238;28;20063;-67
2022/03/09 00:43:17;;;;;;;61.85;20.70;;;0.90;90.70;;;;;;5023363;28;20720;-65
2022/03/09 00:45:43;;;;;;;61.13;18.75;;;0.80;90.30;;;;;;5023785;28;20444;-67
2022/03/09 00:48:10;;;;;;;56.13;18.60;;;0.70;90.00;;;;;;5019582;28;20445;-67
2022/03/09 00:50:36;;;;;;;51.22;16.38;;;0.70;90.00;;;;;;5024250;28;20034;-67
2022/03/09 00:53:02;;;;;;;45.58;16.17;;;0.70;89.70;;;;;;5016981;28;20509;-67
2022/03/09 00:55:27;;;;;;;45.78;14.60;;;0.60;89.60;;;;;;5021668;28;20462;-67
2022/03/09 00:57:53;;;;;;;44.92;16.45;;;0.60;90.00;;;;;;5038054;28;20079;-67
2022/03/09 01:00:19;;;;;;;49.55;16.35;;;0.50;90.10;;;;;;5023093;28;20692;-67
2022/03/09 01:02:46;;;;;;;38.60;13.85;;;0.50;90.00;;;;;;5022755;28;20029;-67
2022/03/09 01:05:13;;;;;;;35.03;11.93;;;0.40;90.00;;;;;;5022711;28;20055;-67
2022/03/09 01:07:39;;;;;;;31.92;11.55;;;0.40;89.80;;;;;;5023180;28;20029;-67
2022/03/09 01:10:05;;;;;;;37.20;13.27;;;0.40;89.80;;;;;;5022391;28;20029;-67
2022/03/09 01:12:31;;;;;;;36.97;13.10;;;0.40;90.10;;;;;;5023319;28;20401;-67
2022/03/09 01:14:56;;;;;;;30.15;11.77;;;0.40;90.10;;;;;;5021066;28;20049;-67
2022/03/09 01:17:23;;;;;;;31.67;12.10;;;0.40;90.40;;;;;;5022250;28;20033;-67
2022/03/09 01:19:48;;;;;;;29.38;12.02;;;0.40;90.30;;;;;;5022526;28;20033;-66
2022/03/09 01:22:14;;;;;;;34.08;12.73;;;0.40;90.20;;;;;;5022718;28;20037;-67
2022/03/09 01:24:40;;;;;;;22.02;10.13;;;0.40;90.30;;;;;;5022995;28;20033;-67
2022/03/09 01:27:06;;;;;;;16.25;8.48;;;0.40;90.60;;;;;;5022408;28;20096;-64
2022/03/09 01:29:32;;;;;;;21.33;9.02;;;0.40;91.20;;;;;;5023034;28;20030;-64
2022/03/09 01:31:57;;;;;;;22.20;10.70;;;0.50;91.50;;;;;;5022941;28;20700;-67
2022/03/09 01:34:23;;;;;;;22.55;10.82;;;0.50;91.50;;;;;;5023297;28;20120;-67
2022/03/09 01:36:49;;;;;;;24.95;10.90;;;0.50;91.50;;;;;;5022492;28;20056;-67
2022/03/09 01:39:14;;;;;;;25.83;11.48;;;0.50;91.50;;;;;;5022560;28;20037;-67
2022/03/09 01:41:41;;;;;;;26.45;12.18;;;0.50;91.40;;;;;;5022670;28;20572;-67
2022/03/09 01:44:15;;;;;;;25.08;11.32;;;0.40;91.20;;;;;;5022615;28;20107;-67
2022/03/09 01:46:42;;;;;;;20.88;9.55;;;0.40;91.00;;;;;;5022657;28;20029;-67
2022/03/09 01:49:09;;;;;;;19.02;9.48;;;0.40;90.50;;;;;;5022869;28;20037;-67
2022/03/09 01:51:39;;;;;;;22.50;8.77;;;0.30;90.20;;;;;;5022926;28;20531;-67
2022/03/09 01:54:06;;;;;;;21.45;9.40;;;0.30;90.20;;;;;;5022716;28;20033;-67
2022/03/09 01:56:33;;;;;;;16.52;8.43;;;0.10;90.40;;;;;;5018602;28;20064;-67
2022/03/09 01:59:02;;;;;;;21.75;9.82;;;0.10;90.60;;;;;;5021777;28;20026;-64
2022/03/09 02:01:28;;;;;;;20.63;8.75;;;0.10;90.40;;;;;;5022023;28;20709;-67
2022/03/09 02:03:53;;;;;;;21.92;9.48;;;0.00;90.30;;;;;;5022059;28;20034;-67
2022/03/09 02:06:19;;;;;;;22.05;10.55;;;0.00;90.40;;;;;;5021054;28;20029;-67
2022/03/09 02:11:32;;;;;;;26.15;10.50;;;-0.10;90.60;;;;;;5019819;28;20045;-67
2022/03/09 02:13:58;;;;;;;26.75;10.10;;;-0.10;90.80;;;;;;5022346;28;20409;-67
2022/03/09 02:16:23;;;;;;;23.63;9.73;;;-0.10;91.00;;;;;;5021789;28;20041;-67
2022/03/09 02:18:49;;;;;;;21.90;10.18;;;-0.10;91.20;;;;;;5021841;28;20046;-67
2022/03/09 02:21:18;;;;;;;25.85;10.52;;;-0.10;91.30;;;;;;5021621;28;20133;-67
2022/03/09 02:23:45;;;;;;;27.58;11.60;;;-0.10;91.30;;;;;;5021232;28;20120;-67
2022/03/09 02:26:11;;;;;;;27.05;12.02;;;-0.20;91.10;;;;;;5018357;28;20044;-67
2022/03/09 02:28:46;;;;;;;30.25;12.77;;;-0.20;91.30;;;;;;5021502;28;20424;-67
2022/03/09 02:31:11;;;;;;;29.27;13.55;;;-0.20;91.30;;;;;;5021169;28;20036;-67
2022/03/09 02:33:37;;;;;;;32.50;14.05;;;-0.20;91.20;;;;;;5021691;28;20041;-67
2022/03/09 02:36:03;;;;;;;29.65;12.75;;;-0.20;91.20;;;;;;5021288;28;20107;-67
2022/03/09 02:38:29;;;;;;;28.63;12.63;;;-0.20;91.30;;;;;;5020726;28;20099;-67
2022/03/09 02:40:55;;;;;;;25.00;11.63;;;-0.20;91.30;;;;;;5021156;28;20021;-67
2022/03/09 02:43:23;;;;;;;16.13;7.97;;;-0.20;91.50;;;;;;5017986;28;20033;-67
2022/03/09 02:45:49;;;;;;;21.80;8.60;;;-0.20;91.70;;;;;;5021003;28;20037;-67
2022/03/09 02:48:15;;;;;;;19.90;9.73;;;-0.20;91.80;;;;;;5021721;28;20504;-66
2022/03/09 02:50:41;;;;;;;26.13;11.50;;;-0.20;91.40;;;;;;5020849;28;20064;-65
2022/03/09 02:53:06;;;;;;;25.80;11.95;;;-0.20;91.20;;;;;;5021167;28;20032;-64
2022/03/09 02:55:32;;;;;;;31.38;12.65;;;-0.20;91.00;;;;;;5021225;28;20123;-66
2022/03/09 02:57:58;;;;;;;33.08;12.73;;;-0.20;90.90;;;;;;5020893;28;20121;-66
2022/03/09 03:00:23;;;;;;;27.52;12.23;;;-0.30;90.90;;;;;;5020558;28;20029;-67
2022/03/09 03:02:49;;;;;;;27.02;12.02;;;-0.30;90.80;;;;;;5020931;28;20026;-66
2022/03/09 03:05:15;;;;;;;25.45;11.10;;;-0.30;90.70;;;;;;5020632;28;20727;-67
2022/03/09 03:07:40;;;;;;;23.70;10.15;;;-0.40;90.60;;;;;;5020715;28;20409;-66
2022/03/09 03:10:06;;;;;;;16.70;8.02;;;-0.40;90.70;;;;;;5019426;28;20994;-67
2022/03/09 03:12:32;;;;;;;17.40;6.60;;;-0.40;91.10;;;;;;5017206;28;20128;-67
2022/03/09 03:14:58;;;;;;;9.13;5.72;;;-0.40;91.40;;;;;;5020849;28;20128;-65
2022/03/09 03:17:24;;;;;;;12.85;5.63;;;-0.30;91.90;;;;;;5020743;28;20803;-65
2022/03/09 03:19:49;;;;;;;12.48;5.68;;;-0.30;92.20;;;;;;5022455;28;20033;-68
2022/03/09 03:22:15;;;;;;;13.30;6.32;;;-0.30;92.20;;;;;;5025664;28;20481;-69
2022/03/09 03:24:41;;;;;;;10.65;6.20;;;-0.20;92.50;;;;;;5025093;28;20053;-69
2022/03/09 03:27:07;;;;;;;11.57;5.88;;;-0.20;92.80;;;;;;5024739;28;20034;-70
2022/03/09 03:29:32;;;;;;;11.13;5.90;;;-0.10;93.00;;;;;;5023061;28;20037;-70
2022/03/09 03:31:58;;;;;;;15.00;6.28;;;-0.10;93.30;;;;;;5023810;28;20501;-69
2022/03/09 03:34:24;;;;;;;16.00;7.00;;;-0.10;93.10;;;;;;5025292;28;20438;-70
2022/03/09 03:36:49;;;;;;;10.35;5.88;;;0.00;93.00;;;;;;5023481;28;20037;-69
2022/03/09 03:39:15;;;;;;;14.18;6.90;;;-0.10;92.90;;;;;;5025060;28;20084;-69
2022/03/09 03:41:41;;;;;;;12.55;6.10;;;0.00;93.00;;;;;;5021220;28;20116;-69
2022/03/09 03:44:07;;;;;;;21.13;7.95;;;-0.10;92.80;;;;;;5023288;28;20807;-69
2022/03/09 03:46:34;;;;;;;14.60;7.85;;;-0.10;92.40;;;;;;5024357;28;20029;-70
2022/03/09 03:48:59;;;;;;;15.15;7.40;;;-0.10;91.80;;;;;;5024639;28;20040;-69
2022/03/09 03:51:25;;;;;;;21.95;7.43;;;-0.10;91.70;;;;;;5024431;28;20033;-69
2022/03/09 03:53:51;;;;;;;17.42;8.13;;;-0.20;91.80;;;;;;5024699;28;20030;-69
2022/03/09 03:56:18;;;;;;;14.43;7.38;;;-0.20;91.40;;;;;;5024149;28;20040;-69
2022/03/09 03:58:43;;;;;;;14.48;6.93;;;-0.20;91.20;;;;;;5023969;28;20029;-69
2022/03/09 04:01:09;;;;;;;17.95;7.82;;;-0.30;91.30;;;;;;5024729;28;20029;-69
2022/03/09 04:03:35;;;;;;;14.80;7.30;;;-0.30;91.40;;;;;;5024639;28;20030;-70
2022/03/09 04:06:02;;;;;;;15.77;7.13;;;-0.30;91.20;;;;;;5024059;28;20087;-69
2022/03/09 04:08:28;;;;;;;16.40;8.13;;;-0.30;91.10;;;;;;5020395;28;20653;-70
2022/03/09 04:10:53;;;;;;;14.40;6.85;;;-0.40;91.30;;;;;;5024766;28;20029;-69
2022/03/09 04:13:19;;;;;;;12.85;6.32;;;-0.40;91.40;;;;;;5024652;28;20489;-69
2022/03/09 04:15:45;;;;;;;13.35;6.03;;;-0.40;91.50;;;;;;5023313;28;20045;-70
2022/03/09 04:18:10;;;;;;;12.57;6.95;;;-0.40;91.70;;;;;;5024245;28;20489;-69
2022/03/09 04:20:36;;;;;;;13.50;6.93;;;-0.40;91.60;;;;;;5023951;28;20054;-69
2022/03/09 04:23:02;;;;;;;14.00;7.10;;;-0.50;91.60;;;;;;5024395;28;20033;-68
2022/03/09 04:25:29;;;;;;;16.58;7.82;;;-0.50;91.40;;;;;;5023466;28;20057;-69
2022/03/09 04:27:55;;;;;;;14.98;7.30;;;-0.60;91.50;;;;;;5023962;28;20025;-69
2022/03/09 04:30:21;;;;;;;16.40;7.47;;;-0.60;91.40;;;;;;5023999;28;20041;-68
2022/03/09 04:32:46;;;;;;;18.45;7.82;;;-0.60;91.40;;;;;;5024345;28;20558;-69
2022/03/09 04:35:12;;;;;;;15.30;7.78;;;-0.70;91.50;;;;;;5023769;28;20041;-69
2022/03/09 04:37:38;;;;;;;17.83;8.27;;;-0.70;91.50;;;;;;5023688;28;20060;-68
2022/03/09 04:40:05;;;;;;;14.90;7.32;;;-0.70;91.30;;;;;;5023668;28;20832;-70
2022/03/09 04:42:31;;;;;;;13.18;6.90;;;-0.70;91.20;;;;;;5023732;28;20041;-70
2022/03/09 04:44:57;;;;;;;14.70;7.50;;;-0.80;91.20;;;;;;5023206;28;20038;-69
2022/03/09 04:47:23;;;;;;;21.85;7.95;;;-0.80;91.30;;;;;;5023133;28;20121;-69
2022/03/09 04:49:51;;;;;;;15.88;7.85;;;-0.80;91.30;;;;;;5023195;28;20041;-70
2022/03/09 04:52:18;;;;;;;13.10;6.90;;;-0.80;91.50;;;;;;5023467;28;20038;-69
2022/03/09 04:54:44;;;;;;;12.60;6.07;;;-0.80;91.80;;;;;;5022805;28;20087;-69
2022/03/09 04:57:09;;;;;;;11.98;6.13;;;-0.80;92.00;;;;;;5023012;28;20045;-69
2022/03/09 04:59:35;;;;;;;13.57;5.90;;;-0.80;92.10;;;;;;5023407;28;20045;-70
2022/03/09 05:02:02;;;;;;;13.57;6.55;;;-0.80;92.30;;;;;;5023498;28;20063;-70
2022/03/09 05:04:27;;;;;;;14.48;6.55;;;-0.70;92.50;;;;;;5023841;28;20403;-69
2022/03/09 05:06:53;;;;;;;13.02;6.57;;;-0.70;92.50;;;;;;5022659;28;20037;-69
2022/03/09 05:09:18;;;;;;;12.82;6.65;;;-0.70;92.60;;;;;;5023412;28;20192;-70
2022/03/09 05:11:44;;;;;;;13.23;7.07;;;-0.70;92.70;;;;;;5022894;28;20041;-70
2022/03/09 05:14:10;;;;;;;12.35;6.25;;;-0.60;92.90;;;;;;5022992;28;20064;-70
2022/03/09 05:16:35;;;;;;;11.77;6.32;;;-0.60;92.70;;;;;;5022643;28;20030;-70
2022/03/09 05:19:02;;;;;;;17.15;8.13;;;-0.60;92.60;;;;;;5026761;28;20762;-69
2022/03/09 05:21:27;;;;;;;15.75;7.78;;;-0.60;92.30;;;;;;5026311;28;20604;-69
2022/03/09 05:23:53;;;;;;;16.30;6.97;;;-0.70;92.10;;;;;;5023134;28;20137;-69
2022/03/09 05:26:19;;;;;;;14.88;7.68;;;-0.70;92.20;;;;;;5022594;28;20033;-69
2022/03/09 05:28:44;;;;;;;14.05;7.22;;;-0.80;92.20;;;;;;5022469;28;20136;-70
2022/03/09 05:31:10;;;;;;;17.10;7.50;;;-0.80;92.10;;;;;;5019484;28;20090;-70
2022/03/09 05:33:36;;;;;;;14.52;7.50;;;-0.80;92.10;;;;;;5022759;28;20669;-70
2022/03/09 05:36:01;;;;;;;10.45;6.03;;;-0.90;92.00;;;;;;5022340;28;20053;-70
2022/03/09 05:38:27;;;;;;;11.88;6.15;;;-0.80;92.00;;;;;;5022186;28;20042;-70
2022/03/09 05:40:53;;;;;;;15.30;6.88;;;-0.80;92.30;;;;;;5022457;28;20065;-70
2022/03/09 05:43:18;;;;;;;12.60;7.22;;;-0.80;92.70;;;;;;5022000;28;20056;-69
2022/03/09 05:45:44;;;;;;;15.63;7.28;;;-0.80;92.60;;;;;;5022071;28;20038;-69
2022/03/09 05:48:10;;;;;;;12.15;6.70;;;-0.80;92.50;;;;;;5022863;28;20037;-70
2022/03/09 05:50:36;;;;;;;15.65;6.72;;;-0.70;92.60;;;;;;5022879;28;20033;-69
2022/03/09 05:53:03;;;;;;;12.40;6.85;;;-0.70;92.60;;;;;;5022449;28;20057;-69
2022/03/09 05:55:29;;;;;;;12.13;6.70;;;-0.60;92.40;;;;;;5021942;28;20216;-69
2022/03/09 05:57:54;;;;;;;12.40;6.85;;;-0.60;92.60;;;;;;5020632;28;20147;-70
2022/03/09 06:00:20;;;;;;;20.08;8.23;;;-0.50;92.60;;;;;;5022455;28;20051;-70
2022/03/09 06:02:47;;;;;;;24.80;10.27;;;-0.50;92.30;;;;;;5022222;28;20103;-70
2022/03/09 06:05:12;;;;;;;23.75;9.85;;;-0.50;92.20;;;;;;5022150;28;20030;-70
2022/03/09 06:07:39;;;;;;;20.17;10.43;;;-0.50;92.10;;;;;;5022461;28;20117;-69
2022/03/09 06:10:05;;;;;;;23.73;9.73;;;-0.40;92.00;;;;;;5022463;28;20136;-70
2022/03/09 06:12:31;;;;;;;16.98;8.32;;;-0.40;91.90;;;;;;5021584;28;20041;-69
2022/03/09 06:14:56;;;;;;;16.65;6.93;;;-0.30;91.90;;;;;;5021711;28;20127;-70
2022/03/09 06:17:22;;;;;;;12.75;6.70;;;-0.20;92.20;;;;;;5021553;28;20025;-70
2022/03/09 06:19:48;;;;;;;11.48;6.50;;;-0.10;92.50;;;;;;5021958;28;20061;-70
2022/03/09 06:22:14;;;;;;;14.95;7.78;;;0.10;92.80;;;;;;5022081;28;20121;-70
2022/03/09 06:24:39;;;;;;;13.52;7.35;;;0.20;93.00;;;;;;5021883;28;20457;-70
2022/03/09 06:27:05;;;;;;;14.80;7.30;;;0.30;93.00;;;;;;5021161;28;20025;-70
2022/03/09 06:29:31;;;;;;;16.70;8.13;;;0.40;93.00;;;;;;5021436;28;20035;-69
2022/03/09 06:31:57;;;;;;;21.60;10.27;;;0.50;93.10;;;;;;5021769;28;20034;-69
2022/03/09 06:34:23;;;;;;;21.23;9.65;;;0.60;93.20;;;;;;5021779;28;20409;-69
2022/03/09 06:36:48;;;;;;;15.98;8.32;;;0.70;93.20;;;;;;5020613;28;20067;-70
2022/03/09 06:39:15;;;;;;;17.77;8.82;;;0.90;93.20;;;;;;5021321;28;20033;-70
2022/03/09 06:41:44;;;;;;;17.98;9.70;;;1.00;93.30;;;;;;5022282;28;20029;-70
2022/03/09 06:44:12;;;;;;;33.75;11.20;;;1.10;93.20;;;;;;5020816;28;20026;-70
2022/03/09 06:46:38;;;;;;;30.95;12.45;;;1.10;92.90;;;;;;5021538;28;20128;-70
2022/03/09 06:49:04;;;;;;;28.08;12.52;;;1.30;92.60;;;;;;5021507;28;20052;-69
2022/03/09 06:51:30;;;;;;;30.48;12.75;;;1.30;91.90;;;;;;5021046;28;20038;-71
2022/03/09 06:53:57;;;;;;;26.13;11.57;;;1.40;91.20;;;;;;5023004;28;20052;-69
2022/03/09 06:56:22;;;;;;;25.58;10.68;;;1.40;91.10;;;;;;5021398;28;20775;-70
2022/03/09 06:58:48;;;;;;;27.33;11.65;;;1.50;91.10;;;;;;5021316;28;20040;-69
2022/03/09 07:01:14;;;;;;;21.85;10.63;;;1.50;90.90;;;;;;5021521;28;20039;-69
2022/03/09 07:03:40;;;;;;;20.60;9.48;;;1.60;90.80;;;;;;5021422;28;20704;-69
2022/03/09 07:06:06;;;;;;;12.93;7.28;;;1.70;90.70;;;;;;5020499;28;20029;-69
2022/03/09 07:08:31;;;;;;;15.07;8.05;;;1.80;90.80;;;;;;5021099;28;20576;-70
2022/03/09 07:10:58;;;;;;;21.70;9.23;;;1.90;90.70;;;;;;5020915;28;20037;-70
2022/03/09 07:13:24;;;;;;;17.75;9.25;;;2.00;90.60;;;;;;5021725;28;20107;-70
2022/03/09 07:15:50;;;;;;;12.27;7.05;;;2.10;90.90;;;;;;5020773;28;20045;-70
2022/03/09 07:18:16;;;;;;;17.63;7.97;;;2.20;90.60;;;;;;5021450;28;20560;-69
2022/03/09 07:20:42;;;;;;;13.18;7.15;;;2.30;90.60;;;;;;5021639;28;20382;-70
2022/03/09 07:23:07;;;;;;;18.42;8.38;;;2.40;90.50;;;;;;5021194;28;20033;-69
2022/03/09 07:25:34;;;;;;;17.15;8.85;;;2.60;90.40;;;;;;5021430;28;20079;-69
2022/03/09 07:28:00;;;;;;;15.02;7.68;;;2.70;90.20;;;;;;5021125;28;20099;-69
2022/03/09 07:30:26;;;;;;;13.20;7.00;;;2.90;89.90;;;;;;5021189;28;20041;-70
2022/03/09 07:32:52;;;;;;;15.30;6.88;;;3.10;89.00;;;;;;5021025;28;20040;-69
2022/03/09 07:35:18;;;;;;;13.30;7.03;;;3.30;88.40;;;;;;5019767;28;20033;-69
2022/03/09 07:37:44;;;;;;;15.30;6.28;;;3.60;87.90;;;;;;5020931;28;20017;-69
2022/03/09 07:40:10;;;;;;;12.98;5.72;;;5.30;84.70;;;;;;5020419;28;20110;-70
2022/03/09 07:42:36;;;;;;;13.70;5.93;;;8.00;74.70;;;;;;5017755;28;20103;-69
2022/03/09 07:45:06;;;;;;;9.25;5.90;;;11.30;61.50;;;;;;5020518;28;20172;-70
2022/03/09 07:47:33;;;;;;;12.23;5.65;;;14.70;50.20;;;;;;5020401;28;20158;-75
2022/03/09 07:49:59;;;;;;;12.82;5.40;;;17.90;41.80;;;;;;5020432;28;20049;-70
2022/03/09 07:52:25;;;;;;;11.45;5.90;;;20.30;36.60;;;;;;5020031;28;20041;-71
2022/03/09 07:54:51;;;;;;;11.55;5.10;;;22.30;33.00;;;;;;5018622;28;20037;-70
2022/03/09 07:57:16;;;;;;;8.02;4.72;;;23.80;30.50;;;;;;5019905;28;20037;-71
2022/03/09 07:59:42;;;;;;;8.00;4.90;;;23.60;30.00;;;;;;5020647;28;20040;-71
2022/03/09 08:02:08;;;;;;;6.85;4.50;;;23.60;29.70;;;;;;5020410;28;20036;-71
2022/03/09 08:04:34;;;;;;;6.78;4.28;;;23.50;29.40;;;;;;5005791;28;20034;-69
2022/03/09 08:06:59;;;;;;;7.45;4.68;;;22.50;30.00;;;;;;5023266;28;20080;-71
2022/03/09 08:09:26;;;;;;;7.28;5.15;;;21.10;31.50;;;;;;5024344;28;20072;-64
2022/03/09 08:11:52;;;;;;;7.13;5.18;;;20.30;32.90;;;;;;5023871;28;20068;-64
2022/03/09 08:14:18;;;;;;;7.97;4.60;;;20.40;32.60;;;;;;5024315;28;20040;-63
2022/03/09 08:16:44;;;;;;;7.00;4.60;;;19.70;33.50;;;;;;5023279;28;20037;-64
2022/03/09 08:19:09;;;;;;;4.03;3.50;;;19.20;34.20;;;;;;5023204;28;20493;-67
2022/03/09 08:21:35;;;;;;;7.32;3.88;;;19.20;34.30;;;;;;5024094;28;20068;-65
2022/03/09 08:24:01;;;;;;;5.15;3.67;;;18.70;34.50;;;;;;5024784;28;20065;-64
2022/03/09 08:26:27;;;;;;;6.35;3.63;;;17.20;36.70;;;;;;5017139;28;20080;-64
2022/03/09 08:28:53;;;;;;;6.43;3.67;;;16.90;37.30;;;;;;5025312;28;20816;-65
2022/03/09 08:31:19;;;;;;;7.68;3.78;;;17.70;36.50;;;;;;5023953;28;20033;-65
2022/03/09 08:33:45;;;;;;;7.47;3.30;;;19.00;33.90;;;;;;5023499;28;20440;-65
2022/03/09 08:36:13;;;;;;;6.07;3.55;;;19.50;33.00;;;;;;5021959;28;20034;-65
2022/03/09 08:38:39;;;;;;;4.50;3.08;;;18.80;33.40;;;;;;5022471;28;20072;-65
2022/03/09 08:41:05;;;;;;;6.32;3.70;;;17.40;35.80;;;;;;5022532;28;20112;-65
2022/03/09 08:43:31;;;;;;;4.25;3.28;;;17.10;37.10;;;;;;5023271;28;20033;-65
2022/03/09 08:45:57;;;;;;;10.30;3.90;;;16.80;36.80;;;;;;5025741;28;20113;-64
2022/03/09 08:48:26;;;;;;;8.77;3.92;;;16.60;38.00;;;;;;5022608;28;20029;-64
2022/03/09 08:50:53;;;;;;;6.88;4.18;;;17.20;36.40;;;;;;5023078;28;20087;-65
2022/03/09 08:53:20;;;;;;;5.20;3.58;;;18.70;34.30;;;;;;5022503;28;20045;-65
2022/03/09 08:55:46;;;;;;;15.57;10.55;;;19.20;33.30;;;;;;5022770;28;20040;-65
2022/03/09 08:58:12;;;;;;;10.02;5.38;;;20.00;32.50;;;;;;5022689;28;20025;-65
2022/03/09 09:00:37;;;;;;;13.80;9.18;;;20.00;32.40;;;;;;5023386;28;20041;-65
2022/03/09 09:03:04;;;;;;;8.90;4.53;;;18.50;35.00;;;;;;5022982;28;20049;-65
2022/03/09 09:05:30;;;;;;;5.80;3.67;;;16.70;37.90;;;;;;5022112;28;20040;-65
2022/03/09 09:07:55;;;;;;;8.23;4.13;;;16.50;38.30;;;;;;5022394;28;20025;-65
2022/03/09 09:10:22;;;;;;;19.98;10.65;;;19.00;34.20;;;;;;5022371;28;20731;-65
2022/03/09 09:12:50;;;;;;;7.28;4.85;;;21.00;31.50;;;;;;5022584;28;20128;-64
2022/03/09 09:15:16;;;;;;;7.35;4.13;;;23.10;29.40;;;;;;5021892;28;20048;-64
2022/03/09 09:17:42;;;;;;;6.13;3.80;;;23.40;28.90;;;;;;5020992;28;20352;-66
2022/03/09 09:20:08;;;;;;;6.88;3.85;;;25.20;28.00;;;;;;5022431;28;20673;-65
2022/03/09 09:22:35;;;;;;;8.35;4.22;;;27.90;26.10;;;;;;5022415;28;20108;-65
2022/03/09 09:25:02;;;;;;;5.38;3.67;;;31.00;24.10;;;;;;5021888;28;20323;-65
2022/03/09 09:27:28;;;;;;;5.40;3.63;;;33.00;22.80;;;;;;5021905;28;20036;-67
2022/03/09 09:29:54;;;;;;;8.68;4.85;;;33.30;22.30;;;;;;5018220;28;20041;-65
2022/03/09 09:32:19;;;;;;;5.72;3.50;;;33.20;22.30;;;;;;5021818;28;20072;-65
2022/03/09 09:34:45;;;;;;;5.38;3.55;;;33.30;21.50;;;;;;5022057;28;20053;-66
2022/03/09 09:37:11;;;;;;;5.40;2.97;;;30.90;22.90;;;;;;5020775;28;20128;-63
2022/03/09 09:39:37;;;;;;;7.72;3.53;;;26.80;25.00;;;;;;5024381;28;20042;-65
2022/03/09 09:42:04;;;;;;;5.75;3.80;;;23.20;27.70;;;;;;5021188;28;20669;-65
2022/03/09 09:44:30;;;;;;;5.75;3.70;;;20.50;31.30;;;;;;5021329;28;20133;-65
2022/03/09 09:46:56;;;;;;;6.15;3.20;;;18.60;33.90;;;;;;5020555;28;20037;-65
2022/03/09 09:49:24;;;;;;;4.60;3.33;;;17.50;35.80;;;;;;5021232;28;20040;-66
2022/03/09 09:51:51;;;;;;;4.97;3.65;;;16.80;36.90;;;;;;5022100;28;20151;-64
2022/03/09 09:54:17;;;;;;;6.30;3.10;;;17.10;36.30;;;;;;5021613;28;20104;-66
2022/03/09 09:56:43;;;;;;;8.45;3.17;;;19.90;32.00;;;;;;5020698;28;20098;-68
2022/03/09 09:59:10;;;;;;;6.03;3.00;;;24.00;28.20;;;;;;5021301;28;20041;-66
2022/03/09 10:01:36;;;;;;;543.42;257.98;;;27.90;25.20;;;;;;5020037;28;20037;-65
2022/03/09 10:04:03;;;;;;;62.63;32.30;;;29.20;23.60;;;;;;5019742;28;20768;-66
2022/03/09 10:06:30;;;;;;;5.85;2.92;;;30.00;23.50;;;;;;5019517;28;20041;-65
2022/03/09 10:09:12;;;;;;;5.38;2.85;;;32.50;21.80;;;;;;5018011;28;20116;-65
2022/03/09 10:11:50;;;;;;;4.95;3.28;;;32.90;21.20;;;;;;5014862;28;20052;-65
2022/03/09 10:14:17;;;;;;;4.90;2.70;;;32.30;21.50;;;;;;5016226;28;20041;-66
2022/03/09 10:17:07;;;;;;;4.07;3.10;;;32.70;21.60;;;;;;5019653;28;20041;-65
2022/03/09 10:19:38;;;;;;;5.78;2.92;;;33.60;21.10;;;;;;5018147;28;20061;-66
2022/03/09 10:22:27;;;;;;;5.75;2.50;;;32.80;21.10;;;;;;5020927;28;20055;-64
2022/03/09 10:24:56;;;;;;;4.03;2.72;;;31.20;21.60;;;;;;5018905;28;20033;-65
2022/03/09 10:27:33;;;;;;;3.97;2.75;;;30.80;22.40;;;;;;5020027;28;20132;-64
2022/03/09 10:30:00;;;;;;;5.57;2.92;;;32.20;21.60;;;;;;5019947;28;20052;-66
2022/03/09 10:32:54;;;;;;;3.72;2.95;;;33.70;21.20;;;;;;5019915;28;20041;-65
2022/03/09 10:35:32;;;;;;;6.80;4.00;;;35.10;20.70;;;;;;5019523;28;20145;-64
2022/03/09 10:38:05;;;;;;;9.57;3.80;;;37.00;20.00;;;;;;5020094;28;20110;-66
2022/03/09 10:40:38;;;;;;;6.53;4.38;;;37.20;19.80;;;;;;5017362;28;20041;-64
2022/03/09 10:43:33;;;;;;;5.68;3.17;;;38.30;19.80;;;;;;5020748;28;20404;-63
2022/03/09 10:46:10;;;;;;;5.65;2.97;;;39.20;18.80;;;;;;5017538;28;20041;-66
2022/03/09 10:49:00;;;;;;;5.07;2.83;;;40.30;19.10;;;;;;5016645;28;20045;-66
2022/03/09 10:51:30;;;;;;;3.30;2.42;;;40.90;18.40;;;;;;5020395;28;20404;-65
2022/03/09 10:53:58;;;;;;;4.55;2.85;;;41.10;18.30;;;;;;5022883;28;20042;-66
2022/03/09 10:56:24;;;;;;;5.22;2.38;;;41.30;18.40;;;;;;5020965;28;20124;-66
2022/03/09 10:58:50;;;;;;;3.13;2.50;;;41.60;18.20;;;;;;5011512;28;20025;-68
2022/03/09 11:01:20;;;;;;;4.18;2.60;;;41.50;17.70;;;;;;5014246;28;20038;-64
2022/03/09 11:03:46;;;;;;;3.67;2.10;;;41.10;17.80;;;;;;5011333;28;20037;-64
2022/03/09 11:06:12;;;;;;;3.85;2.13;;;41.00;17.80;;;;;;5008791;28;20844;-64
2022/03/09 11:08:39;;;;;;;3.35;2.20;;;40.70;17.70;;;;;;5010130;28;20025;-65
2022/03/09 11:11:06;;;;;;;3.42;2.42;;;40.20;17.70;;;;;;5019122;28;20832;-65
2022/03/09 11:13:34;;;;;;;3.75;2.75;;;39.40;18.00;;;;;;5016756;28;20022;-65
2022/03/09 11:16:00;;;;;;;3.85;2.20;;;39.20;18.40;;;;;;5007736;28;20532;-65
2022/03/09 11:18:30;;;;;;;4.43;2.70;;;38.70;18.40;;;;;;5011012;28;20033;-65
2022/03/09 11:21:01;;;;;;;6.65;2.83;;;38.40;18.50;;;;;;5012382;28;20087;-72
2022/03/09 11:23:29;;;;;;;5.25;2.38;;;36.30;18.90;;;;;;5015668;28;20541;-65
2022/03/09 11:26:04;;;;;;;5.25;2.60;;;30.70;21.30;;;;;;5018625;28;20198;-63
2022/03/09 11:28:34;;;;;;;4.05;2.40;;;26.10;23.80;;;;;;5020093;28;20025;-62
2022/03/09 11:31:11;;;;;;;7.70;3.80;;;22.70;25.80;;;;;;5019757;28;20046;-63
2022/03/09 11:33:40;;;;;;;20.15;9.45;;;20.20;28.70;;;;;;5016736;28;20070;-62
2022/03/09 11:36:23;;;;;;;9.85;4.40;;;18.50;31.70;;;;;;5018284;28;20331;-62
2022/03/09 11:38:50;;;;;;;4.07;2.42;;;17.40;32.10;;;;;;5016015;28;20067;-63
2022/03/09 11:41:24;;;;;;;4.57;2.33;;;16.90;32.10;;;;;;5022113;28;20464;-63
2022/03/09 11:43:52;;;;;;;23.98;10.82;;;16.40;34.60;;;;;;5023510;28;20041;-63
2022/03/09 11:46:19;;;;;;;7.32;3.13;;;16.20;34.90;;;;;;5021611;28;20025;-63
2022/03/09 11:48:49;;;;;;;5.32;3.33;;;16.10;35.00;;;;;;5022985;28;20064;-63
2022/03/09 11:51:15;;;;;;;15.43;6.88;;;16.00;35.80;;;;;;5019609;28;20025;-63
2022/03/09 11:53:46;;;;;;;4.43;2.70;;;15.80;35.70;;;;;;5020767;28;20041;-63
2022/03/09 11:56:30;;;;;;;8.68;3.88;;;15.70;35.60;;;;;;5021804;28;20767;-62
2022/03/09 11:59:25;;;;;;;12.95;5.75;;;15.60;34.40;;;;;;5021517;28;20468;-62
2022/03/09 12:02:07;;;;;;;5.75;2.33;;;15.50;35.10;;;;;;5021513;28;20045;-62
2022/03/09 12:04:50;;;;;;;6.30;3.03;;;15.20;35.70;;;;;;5020466;28;20021;-63
2022/03/09 12:07:29;;;;;;;5.07;2.95;;;15.00;37.10;;;;;;5021640;28;20037;-62
2022/03/09 12:10:03;;;;;;;7.10;3.58;;;14.90;37.60;;;;;;5023426;28;20084;-62
2022/03/09 12:12:32;;;;;;;3.75;2.50;;;14.90;37.50;;;;;;5024343;28;20039;-63
2022/03/09 12:15:07;;;;;;;5.95;2.95;;;14.90;36.60;;;;;;5023674;28;20741;-63
2022/03/09 12:17:38;;;;;;;4.63;2.70;;;14.90;36.90;;;;;;5020411;28;20037;-62
2022/03/09 12:20:23;;;;;;;6.97;3.47;;;14.90;36.80;;;;;;5024119;28;20119;-62
2022/03/09 12:22:55;;;;;;;5.07;2.70;;;14.70;38.00;;;;;;5020844;28;20079;-63
2022/03/09 12:25:42;;;;;;;8.30;3.05;;;14.60;37.40;;;;;;5023507;28;20050;-62
2022/03/09 12:30:56;;;;;;;7.00;2.72;;;14.50;37.90;;;;;;5020777;28;20037;-63
2022/03/09 12:33:25;;;;;;;5.25;2.70;;;14.50;38.30;;;;;;5023541;28;20044;-63
2022/03/09 12:35:52;;;;;;;5.18;2.60;;;14.50;37.40;;;;;;5022760;28;20080;-63
2022/03/09 12:38:18;;;;;;;5.10;2.55;;;14.40;38.80;;;;;;5022471;28;20033;-63
2022/03/09 12:40:48;;;;;;;4.53;3.08;;;14.50;39.60;;;;;;5023673;28;20029;-62
2022/03/09 12:43:13;;;;;;;5.00;2.72;;;14.50;39.30;;;;;;5023806;28;20156;-63
2022/03/09 12:45:54;;;;;;;6.40;2.42;;;14.50;38.40;;;;;;5021359;28;20136;-63
2022/03/09 12:48:21;;;;;;;8.88;2.97;;;14.40;38.90;;;;;;5022685;28;20041;-62